sensor_id;sensor_type;location;lat;lon;timestamp;pressure;altitude;pressure_sealevel;temperature;humidity
50380;BME280;37474;59.468;18.040;2022-10-22T00:02:05;101324.13;;;1.62;100.00
50380;BME280;37474;59.468;18.040;2022-10-22T00:04:34;101306.25;;;1.52;100.00
50380;BME280;37474;59.468;18.040;2022-10-22T00:07:02;101326.63;;;1.68;100.00
50380;BME280;37474;59.468;18.040;2022-10-22T00:09:32;101295.19;;;1.52;100.00
50380;BME280;37474;59.468;18.040;2022-10-22T00:12:02;101282.38;;;1.58;100.00
50380;BME280;37474;59.468;18.040;2022-10-22T00:14:30;101321.38;;;1.92;100.00
50380;BME280;37474;59.468;18.040;2022-10-22T00:17:00;101313.69;;;1.94;100.00
50380;BME280;37474;59.468;18.040;2022-10-22T00:19:38;101317.91;;;1.98;100.00
50380;BME280;37474;59.468;18.040;2022-10-22T00:22:10;101305.09;;;2.04;100.00
50380;BME280;37474;59.468;18.040;2022-10-22T00:24:40;101281.31;;;1.88;100.00
50380;BME280;37474;59.468;18.040;2022-10-22T00:27:09;101314.44;;;2.11;100.00
50380;BME280;37474;59.468;18.040;2022-10-22T00:29:40;101311.81;;;2.16;100.00
50380;BME280;37474;59.468;18.040;2022-10-22T00:32:10;101311.88;;;2.11;100.00
50380;BME280;37474;59.468;18.040;2022-10-22T00:34:39;101302.44;;;2.15;100.00
50380;BME280;37474;59.468;18.040;2022-10-22T00:37:09;101305.06;;;2.08;100.00
50380;BME280;37474;59.468;18.040;2022-10-22T00:39:38;101300.75;;;2.17;100.00
50380;BME280;37474;59.468;18.040;2022-10-22T00:42:09;101305.00;;;2.15;100.00
50380;BME280;37474;59.468;18.040;2022-10-22T00:45:04;101295.56;;;2.21;100.00
50380;BME280;37474;59.468;18.040;2022-10-22T00:47:36;101290.50;;;2.15;100.00
50380;BME280;37474;59.468;18.040;2022-10-22T00:50:13;101290.53;;;2.10;100.00
50380;BME280;37474;59.468;18.040;2022-10-22T00:52:44;101282.94;;;2.03;100.00
50380;BME280;37474;59.468;18.040;2022-10-22T00:55:15;101282.06;;;2.07;100.00
50380;BME280;37474;59.468;18.040;2022-10-22T00:57:44;101274.34;;;2.13;100.00
50380;BME280;37474;59.468;18.040;2022-10-22T01:00:15;101275.97;;;2.22;100.00
50380;BME280;37474;59.468;18.040;2022-10-22T01:02:46;101275.97;;;2.23;100.00
50380;BME280;37474;59.468;18.040;2022-10-22T01:05:16;101241.97;;;2.07;100.00
50380;BME280;37474;59.468;18.040;2022-10-22T01:08:01;101281.03;;;2.28;100.00
50380;BME280;37474;59.468;18.040;2022-10-22T01:10:41;101264.91;;;2.20;100.00
50380;BME280;37474;59.468;18.040;2022-10-22T01:13:23;101253.69;;;2.34;100.00
50380;BME280;37474;59.468;18.040;2022-10-22T01:15:59;101222.38;;;2.08;100.00
50380;BME280;37474;59.468;18.040;2022-10-22T01:18:43;101268.09;;;2.43;100.00
50380;BME280;37474;59.468;18.040;2022-10-22T01:21:26;101229.91;;;2.22;100.00
50380;BME280;37474;59.468;18.040;2022-10-22T01:24:14;101272.38;;;2.43;100.00
50380;BME280;37474;59.468;18.040;2022-10-22T01:27:08;101265.53;;;2.43;100.00
50380;BME280;37474;59.468;18.040;2022-10-22T01:29:45;101234.94;;;2.32;100.00
50380;BME280;37474;59.468;18.040;2022-10-22T01:32:16;101267.16;;;2.53;100.00
50380;BME280;37474;59.468;18.040;2022-10-22T01:34:51;101256.84;;;2.61;100.00
50380;BME280;37474;59.468;18.040;2022-10-22T01:37:22;101262.81;;;2.61;100.00
50380;BME280;37474;59.468;18.040;2022-10-22T01:39:55;101225.44;;;2.44;100.00
50380;BME280;37474;59.468;18.040;2022-10-22T01:42:23;101256.72;;;2.72;100.00
50380;BME280;37474;59.468;18.040;2022-10-22T01:44:52;101265.25;;;2.71;100.00
50380;BME280;37474;59.468;18.040;2022-10-22T01:47:34;101266.09;;;2.71;100.00
50380;BME280;37474;59.468;18.040;2022-10-22T01:50:40;101259.41;;;2.61;100.00
50380;BME280;37474;59.468;18.040;2022-10-22T01:53:29;101232.28;;;2.42;100.00
50380;BME280;37474;59.468;18.040;2022-10-22T01:56:16;101202.66;;;2.22;100.00
50380;BME280;37474;59.468;18.040;2022-10-22T01:58:59;101229.78;;;2.37;100.00
50380;BME280;37474;59.468;18.040;2022-10-22T02:01:39;101252.63;;;2.55;100.00
50380;BME280;37474;59.468;18.040;2022-10-22T02:04:14;101252.72;;;2.46;100.00
50380;BME280;37474;59.468;18.040;2022-10-22T02:06:45;101256.16;;;2.44;100.00
50380;BME280;37474;59.468;18.040;2022-10-22T02:09:19;101252.78;;;2.38;100.00
50380;BME280;37474;59.468;18.040;2022-10-22T02:11:49;101251.16;;;2.30;100.00
50380;BME280;37474;59.468;18.040;2022-10-22T02:14:18;101247.00;;;2.20;100.00
50380;BME280;37474;59.468;18.040;2022-10-22T02:16:50;101240.16;;;2.20;100.00
50380;BME280;37474;59.468;18.040;2022-10-22T02:19:24;101244.47;;;2.17;100.00
50380;BME280;37474;59.468;18.040;2022-10-22T02:21:52;101238.59;;;2.07;100.00
50380;BME280;37474;59.468;18.040;2022-10-22T02:24:24;101203.78;;;1.88;100.00
50380;BME280;37474;59.468;18.040;2022-10-22T02:26:57;101210.63;;;1.82;100.00
50380;BME280;37474;59.468;18.040;2022-10-22T02:29:35;101227.53;;;2.02;100.00
50380;BME280;37474;59.468;18.040;2022-10-22T02:32:08;101223.31;;;1.98;100.00
50380;BME280;37474;59.468;18.040;2022-10-22T02:34:42;101213.91;;;2.00;100.00
50380;BME280;37474;59.468;18.040;2022-10-22T02:37:12;101215.53;;;2.10;100.00
50380;BME280;37474;59.468;18.040;2022-10-22T02:39:45;101194.22;;;2.09;100.00
50380;BME280;37474;59.468;18.040;2022-10-22T02:42:13;101186.63;;;2.02;100.00
50380;BME280;37474;59.468;18.040;2022-10-22T02:44:41;101155.25;;;1.81;100.00
50380;BME280;37474;59.468;18.040;2022-10-22T02:47:14;101176.41;;;2.00;100.00
50380;BME280;37474;59.468;18.040;2022-10-22T02:49:44;101210.31;;;2.22;100.00
50380;BME280;37474;59.468;18.040;2022-10-22T02:52:14;101221.31;;;2.30;100.00
50380;BME280;37474;59.468;18.040;2022-10-22T02:54:42;101212.63;;;2.44;100.00
50380;BME280;37474;59.468;18.040;2022-10-22T02:57:12;101211.81;;;2.42;100.00
50380;BME280;37474;59.468;18.040;2022-10-22T02:59:40;101216.91;;;2.43;100.00
50380;BME280;37474;59.468;18.040;2022-10-22T03:02:08;101222.06;;;2.42;100.00
50380;BME280;37474;59.468;18.040;2022-10-22T03:04:39;101197.25;;;2.48;100.00
50380;BME280;37474;59.468;18.040;2022-10-22T03:07:09;101202.41;;;2.45;100.00
50380;BME280;37474;59.468;18.040;2022-10-22T03:09:37;101213.38;;;2.55;100.00
50380;BME280;37474;59.468;18.040;2022-10-22T03:12:07;101209.13;;;2.54;100.00
50380;BME280;37474;59.468;18.040;2022-10-22T03:14:36;101210.78;;;2.58;100.00
50380;BME280;37474;59.468;18.040;2022-10-22T03:17:04;101208.03;;;2.76;100.00
50380;BME280;37474;59.468;18.040;2022-10-22T03:19:34;101205.44;;;2.79;100.00
50380;BME280;37474;59.468;18.040;2022-10-22T03:22:09;101213.94;;;2.81;100.00
50380;BME280;37474;59.468;18.040;2022-10-22T03:24:42;101211.44;;;2.78;100.00
50380;BME280;37474;59.468;18.040;2022-10-22T03:27:14;101199.59;;;2.68;100.00
50380;BME280;37474;59.468;18.040;2022-10-22T03:29:45;101205.50;;;2.72;100.00
50380;BME280;37474;59.468;18.040;2022-10-22T03:32:16;101192.00;;;2.62;100.00
50380;BME280;37474;59.468;18.040;2022-10-22T03:34:44;101204.72;;;2.68;100.00
50380;BME280;37474;59.468;18.040;2022-10-22T03:37:15;101153.84;;;2.41;100.00
50380;BME280;37474;59.468;18.040;2022-10-22T03:39:45;101206.38;;;2.71;100.00
50380;BME280;37474;59.468;18.040;2022-10-22T03:42:13;101156.41;;;2.41;100.00
50380;BME280;37474;59.468;18.040;2022-10-22T03:44:45;101188.53;;;2.64;100.00
50380;BME280;37474;59.468;18.040;2022-10-22T03:47:14;101199.59;;;2.68;100.00
50380;BME280;37474;59.468;18.040;2022-10-22T03:49:42;101195.34;;;2.65;100.00
50380;BME280;37474;59.468;18.040;2022-10-22T03:52:14;101152.16;;;2.40;100.00
50380;BME280;37474;59.468;18.040;2022-10-22T03:54:44;101179.28;;;2.53;100.00
50380;BME280;37474;59.468;18.040;2022-10-22T03:57:12;101187.75;;;2.61;100.00
50380;BME280;37474;59.468;18.040;2022-10-22T03:59:44;101195.41;;;2.59;100.00
50380;BME280;37474;59.468;18.040;2022-10-22T04:02:14;101189.50;;;2.56;100.00
50380;BME280;37474;59.468;18.040;2022-10-22T04:04:42;101154.66;;;2.43;100.00
50380;BME280;37474;59.468;18.040;2022-10-22T04:07:10;101176.66;;;2.59;100.00
50380;BME280;37474;59.468;18.040;2022-10-22T04:09:41;101171.47;;;2.67;100.00
50380;BME280;37474;59.468;18.040;2022-10-22T04:12:09;101168.50;;;2.97;100.00
50380;BME280;37474;59.468;18.040;2022-10-22T04:14:39;101172.19;;;2.76;100.00
50380;BME280;37474;59.468;18.040;2022-10-22T04:17:09;101129.13;;;2.38;100.00
50380;BME280;37474;59.468;18.040;2022-10-22T04:19:37;101171.69;;;2.47;100.00
50380;BME280;37474;59.468;18.040;2022-10-22T04:22:07;101174.22;;;2.47;100.00
50380;BME280;37474;59.468;18.040;2022-10-22T04:24:37;101179.44;;;2.41;100.00
50380;BME280;37474;59.468;18.040;2022-10-22T04:27:06;101175.25;;;2.33;100.00
50380;BME280;37474;59.468;18.040;2022-10-22T04:29:36;101173.63;;;2.25;100.00
50380;BME280;37474;59.468;18.040;2022-10-22T04:32:06;101147.38;;;2.06;100.00
50380;BME280;37474;59.468;18.040;2022-10-22T04:34:34;101175.47;;;2.09;100.00
50380;BME280;37474;59.468;18.040;2022-10-22T04:37:04;101117.91;;;1.68;100.00
50380;BME280;37474;59.468;18.040;2022-10-22T04:39:36;101176.50;;;1.90;100.00
50380;BME280;37474;59.468;18.040;2022-10-22T04:42:04;101169.78;;;1.76;100.00
50380;BME280;37474;59.468;18.040;2022-10-22T04:44:33;101158.84;;;1.61;100.00
50380;BME280;37474;59.468;18.040;2022-10-22T04:47:05;101154.66;;;1.52;100.00
50380;BME280;37474;59.468;18.040;2022-10-22T04:49:33;101152.16;;;1.43;100.00
50380;BME280;37474;59.468;18.040;2022-10-22T04:52:01;101153.94;;;1.31;100.00
50380;BME280;37474;59.468;18.040;2022-10-22T04:54:33;101151.41;;;1.27;100.00
50380;BME280;37474;59.468;18.040;2022-10-22T04:57:03;101153.13;;;1.25;100.00
50380;BME280;37474;59.468;18.040;2022-10-22T04:59:30;101105.59;;;1.04;100.00
50380;BME280;37474;59.468;18.040;2022-10-22T05:02:02;101151.50;;;1.18;100.00
50380;BME280;37474;59.468;18.040;2022-10-22T05:04:32;101142.88;;;1.31;100.00
50380;BME280;37474;59.468;18.040;2022-10-22T05:06:59;101143.84;;;1.15;100.00
50380;BME280;37474;59.468;18.040;2022-10-22T05:09:29;101137.06;;;1.09;100.00
50380;BME280;37474;59.468;18.040;2022-10-22T05:11:59;101108.25;;;0.87;100.00
50380;BME280;37474;59.468;18.040;2022-10-22T05:14:27;101082.78;;;0.76;100.00
50380;BME280;37474;59.468;18.040;2022-10-22T05:16:57;101132.81;;;1.08;100.00
50380;BME280;37474;59.468;18.040;2022-10-22T05:19:30;101104.88;;;0.82;100.00
50380;BME280;37474;59.468;18.040;2022-10-22T05:22:02;101110.78;;;0.92;100.00
50380;BME280;37474;59.468;18.040;2022-10-22T05:24:32;101129.44;;;1.06;100.00
50380;BME280;37474;59.468;18.040;2022-10-22T05:27:04;101125.19;;;1.02;100.00
50380;BME280;37474;59.468;18.040;2022-10-22T05:29:32;101105.66;;;0.95;100.00
50380;BME280;37474;59.468;18.040;2022-10-22T05:32:00;101095.41;;;1.02;100.00
50380;BME280;37474;59.468;18.040;2022-10-22T05:34:31;101117.38;;;1.28;100.00
50380;BME280;37474;59.468;18.040;2022-10-22T05:37:01;101108.88;;;1.21;100.00
50380;BME280;37474;59.468;18.040;2022-10-22T05:39:29;101106.31;;;1.21;100.00
50380;BME280;37474;59.468;18.040;2022-10-22T05:41:57;101109.69;;;1.29;100.00
50380;BME280;37474;59.468;18.040;2022-10-22T05:44:27;101111.31;;;1.40;100.00
50380;BME280;37474;59.468;18.040;2022-10-22T05:46:55;101055.34;;;1.12;100.00
50380;BME280;37474;59.468;18.040;2022-10-22T05:49:25;101110.13;;;1.77;100.00
50380;BME280;37474;59.468;18.040;2022-10-22T05:51:56;101112.53;;;1.93;100.00
50380;BME280;37474;59.468;18.040;2022-10-22T05:54:24;101115.88;;;2.02;100.00
50380;BME280;37474;59.468;18.040;2022-10-22T05:56:54;101077.41;;;2.11;100.00
50380;BME280;37474;59.468;18.040;2022-10-22T05:59:24;101111.06;;;2.52;100.00
50380;BME280;37474;59.468;18.040;2022-10-22T06:01:51;101111.00;;;2.55;100.00
50380;BME280;37474;59.468;18.040;2022-10-22T06:04:22;101100.97;;;2.40;100.00
50380;BME280;37474;59.468;18.040;2022-10-22T06:06:52;101077.09;;;2.37;100.00
50380;BME280;37474;59.468;18.040;2022-10-22T06:09:26;101106.00;;;2.46;100.00
50380;BME280;37474;59.468;18.040;2022-10-22T06:11:57;101105.97;;;2.50;100.00
50380;BME280;37474;59.468;18.040;2022-10-22T06:14:26;101082.13;;;2.45;100.00
50380;BME280;37474;59.468;18.040;2022-10-22T06:16:58;101104.91;;;2.65;100.00
50380;BME280;37474;59.468;18.040;2022-10-22T06:19:28;101089.56;;;2.63;100.00
50380;BME280;37474;59.468;18.040;2022-10-22T06:21:56;101098.66;;;2.86;100.00
50380;BME280;37474;59.468;18.040;2022-10-22T06:24:27;101094.00;;;3.11;100.00
50380;BME280;37474;59.468;18.040;2022-10-22T06:26:58;101092.41;;;3.04;100.00
50380;BME280;37474;59.468;18.040;2022-10-22T06:29:25;101096.50;;;3.17;100.00
50380;BME280;37474;59.468;18.040;2022-10-22T06:31:53;101063.22;;;3.15;100.00
50380;BME280;37474;59.468;18.040;2022-10-22T06:34:26;101096.25;;;3.32;100.00
50380;BME280;37474;59.468;18.040;2022-10-22T06:36:54;101009.03;;;2.86;100.00
50380;BME280;37474;59.468;18.040;2022-10-22T06:39:21;101049.34;;;3.27;100.00
50380;BME280;37474;59.468;18.040;2022-10-22T06:41:55;101085.44;;;3.66;100.00
50380;BME280;37474;59.468;18.040;2022-10-22T06:44:23;101089.47;;;3.81;100.00
50380;BME280;37474;59.468;18.040;2022-10-22T06:46:51;101076.97;;;3.61;100.00
50380;BME280;37474;59.468;18.040;2022-10-22T06:49:24;101090.53;;;3.69;100.00
50380;BME280;37474;59.468;18.040;2022-10-22T06:51:53;101089.72;;;3.65;100.00
50380;BME280;37474;59.468;18.040;2022-10-22T06:54:21;101090.28;;;3.84;100.00
50380;BME280;37474;59.468;18.040;2022-10-22T06:56:55;101094.59;;;3.81;100.00
50380;BME280;37474;59.468;18.040;2022-10-22T06:59:23;101092.50;;;4.03;100.00
50380;BME280;37474;59.468;18.040;2022-10-22T07:01:51;101096.94;;;3.94;100.00
50380;BME280;37474;59.468;18.040;2022-10-22T07:04:23;101089.16;;;3.97;100.00
50380;BME280;37474;59.468;18.040;2022-10-22T07:06:53;101097.63;;;4.03;100.00
50380;BME280;37474;59.468;18.040;2022-10-22T07:09:21;101092.25;;;4.15;100.00
50380;BME280;37474;59.468;18.040;2022-10-22T07:11:54;101097.97;;;4.29;100.00
50380;BME280;37474;59.468;18.040;2022-10-22T07:14:22;101101.09;;;4.43;100.00
50380;BME280;37474;59.468;18.040;2022-10-22T07:16:51;101081.91;;;4.19;100.00
50380;BME280;37474;59.468;18.040;2022-10-22T07:19:23;101094.41;;;4.36;100.00
50380;BME280;37474;59.468;18.040;2022-10-22T07:21:50;101099.00;;;4.62;100.00
50380;BME280;37474;59.468;18.040;2022-10-22T07:24:18;101099.09;;;4.58;100.00
50380;BME280;37474;59.468;18.040;2022-10-22T07:26:50;101105.44;;;4.82;100.00
50380;BME280;37474;59.468;18.040;2022-10-22T07:29:22;101093.75;;;4.68;100.00
50380;BME280;37474;59.468;18.040;2022-10-22T07:31:51;101075.88;;;4.64;100.00
50380;BME280;37474;59.468;18.040;2022-10-22T07:34:19;101051.19;;;4.95;100.00
50380;BME280;37474;59.468;18.040;2022-10-22T07:36:47;101101.69;;;4.96;100.00
50380;BME280;37474;59.468;18.040;2022-10-22T07:39:16;101103.25;;;5.03;100.00
50380;BME280;37474;59.468;18.040;2022-10-22T07:41:43;101096.03;;;4.81;100.00
50380;BME280;37474;59.468;18.040;2022-10-22T07:44:13;101106.97;;;4.90;100.00
50380;BME280;37474;59.468;18.040;2022-10-22T07:46:45;101084.13;;;4.78;100.00
50380;BME280;37474;59.468;18.040;2022-10-22T07:49:14;101063.34;;;4.89;100.00
50380;BME280;37474;59.468;18.040;2022-10-22T07:51:42;101052.31;;;4.84;100.00
50380;BME280;37474;59.468;18.040;2022-10-22T07:54:12;101098.78;;;5.10;100.00
50380;BME280;37474;59.468;18.040;2022-10-22T07:56:42;101094.44;;;5.14;100.00
50380;BME280;37474;59.468;18.040;2022-10-22T07:59:10;101062.06;;;5.07;100.00
50380;BME280;37474;59.468;18.040;2022-10-22T08:01:40;101066.50;;;5.00;100.00
50380;BME280;37474;59.468;18.040;2022-10-22T08:04:11;101095.03;;;5.25;100.00
50380;BME280;37474;59.468;18.040;2022-10-22T08:06:39;101094.16;;;5.26;100.00
50380;BME280;37474;59.468;18.040;2022-10-22T08:09:12;101096.72;;;5.27;100.00
50380;BME280;37474;59.468;18.040;2022-10-22T08:11:41;101088.16;;;5.25;100.00
50380;BME280;37474;59.468;18.040;2022-10-22T08:14:10;101092.31;;;5.67;100.00
50380;BME280;37474;59.468;18.040;2022-10-22T08:16:38;101102.09;;;5.52;100.00
50380;BME280;37474;59.468;18.040;2022-10-22T08:19:06;101091.19;;;5.43;100.00
50380;BME280;37474;59.468;18.040;2022-10-22T08:21:35;101089.06;;;5.59;100.00
50380;BME280;37474;59.468;18.040;2022-10-22T08:24:06;101090.91;;;5.53;100.00
50380;BME280;37474;59.468;18.040;2022-10-22T08:26:34;101094.47;;;5.48;100.00
50380;BME280;37474;59.468;18.040;2022-10-22T08:29:02;101095.25;;;5.51;100.00
50380;BME280;37474;59.468;18.040;2022-10-22T08:31:33;101097.72;;;5.56;100.00
50380;BME280;37474;59.468;18.040;2022-10-22T08:34:01;101095.31;;;5.82;100.00
50380;BME280;37474;59.468;18.040;2022-10-22T08:36:28;101060.22;;;5.47;100.00
50380;BME280;37474;59.468;18.040;2022-10-22T08:38:59;101086.91;;;5.77;100.00
50380;BME280;37474;59.468;18.040;2022-10-22T08:41:27;101065.84;;;5.96;100.00
50380;BME280;37474;59.468;18.040;2022-10-22T08:44:25;101090.88;;;5.89;100.00
50380;BME280;37474;59.468;18.040;2022-10-22T08:47:15;101091.53;;;5.97;100.00
50380;BME280;37474;59.468;18.040;2022-10-22T08:49:50;101094.78;;;6.04;100.00
50380;BME280;37474;59.468;18.040;2022-10-22T08:52:19;101073.56;;;5.96;100.00
50380;BME280;37474;59.468;18.040;2022-10-22T08:54:55;101096.03;;;5.89;100.00
50380;BME280;37474;59.468;18.040;2022-10-22T08:57:36;101093.88;;;5.72;100.00
50380;BME280;37474;59.468;18.040;2022-10-22T09:00:14;101094.63;;;5.76;100.00
50380;BME280;37474;59.468;18.040;2022-10-22T09:02:52;101051.50;;;5.53;100.00
50380;BME280;37474;59.468;18.040;2022-10-22T09:05:33;101087.66;;;5.81;100.00
50380;BME280;37474;59.468;18.040;2022-10-22T09:08:08;101076.75;;;6.05;100.00
50380;BME280;37474;59.468;18.040;2022-10-22T09:10:42;101079.84;;;6.48;100.00
50380;BME280;37474;59.468;18.040;2022-10-22T09:13:15;101082.28;;;6.52;100.00
50380;BME280;37474;59.468;18.040;2022-10-22T09:15:44;101084.78;;;6.55;100.00
50380;BME280;37474;59.468;18.040;2022-10-22T09:18:26;101066.69;;;6.57;100.00
50380;BME280;37474;59.468;18.040;2022-10-22T09:21:00;101072.50;;;6.64;100.00
50380;BME280;37474;59.468;18.040;2022-10-22T09:23:33;101064.50;;;6.73;100.00
50380;BME280;37474;59.468;18.040;2022-10-22T09:26:11;101059.69;;;6.90;100.00
50380;BME280;37474;59.468;18.040;2022-10-22T09:28:40;101060.19;;;7.01;100.00
50380;BME280;37474;59.468;18.040;2022-10-22T09:31:12;101069.59;;;7.02;100.00
50380;BME280;37474;59.468;18.040;2022-10-22T09:33:42;101025.63;;;6.80;100.00
50380;BME280;37474;59.468;18.040;2022-10-22T09:36:15;101062.44;;;7.12;100.00
50380;BME280;37474;59.468;18.040;2022-10-22T09:38:46;101070.81;;;7.19;100.00
50380;BME280;37474;59.468;18.040;2022-10-22T09:41:23;101062.78;;;7.28;100.00
50380;BME280;37474;59.468;18.040;2022-10-22T09:43:51;101067.00;;;7.30;100.00
50380;BME280;37474;59.468;18.040;2022-10-22T09:46:24;101072.59;;;7.43;100.00
50380;BME280;37474;59.468;18.040;2022-10-22T09:48:59;101066.34;;;7.50;100.00
50380;BME280;37474;59.468;18.040;2022-10-22T09:51:45;101061.59;;;7.63;100.00
50380;BME280;37474;59.468;18.040;2022-10-22T09:54:16;101057.84;;;7.72;100.00
50380;BME280;37474;59.468;18.040;2022-10-22T09:56:52;101057.66;;;7.78;100.00
50380;BME280;37474;59.468;18.040;2022-10-22T09:59:27;101052.31;;;7.82;100.00
50380;BME280;37474;59.468;18.040;2022-10-22T10:01:59;101044.44;;;7.87;100.00
50380;BME280;37474;59.468;18.040;2022-10-22T10:04:48;101036.81;;;8.07;100.00
50380;BME280;37474;59.468;18.040;2022-10-22T10:07:20;101036.22;;;8.24;100.00
50380;BME280;37474;59.468;18.040;2022-10-22T10:09:48;100999.31;;;8.20;100.00
50380;BME280;37474;59.468;18.040;2022-10-22T10:12:27;101004.78;;;8.36;100.00
50380;BME280;37474;59.468;18.040;2022-10-22T10:15:07;101024.09;;;8.50;100.00
50380;BME280;37474;59.468;18.040;2022-10-22T10:17:42;100986.97;;;8.29;100.00
50380;BME280;37474;59.468;18.040;2022-10-22T10:20:23;101028.38;;;8.51;100.00
50380;BME280;37474;59.468;18.040;2022-10-22T10:23:01;101023.38;;;8.46;100.00
50380;BME280;37474;59.468;18.040;2022-10-22T10:25:43;101013.47;;;8.57;100.00
50380;BME280;37474;59.468;18.040;2022-10-22T10:28:43;101009.91;;;8.60;100.00
50380;BME280;37474;59.468;18.040;2022-10-22T10:31:18;101010.69;;;8.62;100.00
50380;BME280;37474;59.468;18.040;2022-10-22T10:33:56;101009.63;;;8.67;100.00
50380;BME280;37474;59.468;18.040;2022-10-22T10:36:36;100995.91;;;8.65;100.00
50380;BME280;37474;59.468;18.040;2022-10-22T10:39:11;100999.63;;;8.58;100.00
50380;BME280;37474;59.468;18.040;2022-10-22T10:41:50;101000.59;;;8.56;100.00
50380;BME280;37474;59.468;18.040;2022-10-22T10:44:36;101006.19;;;8.67;100.00
50380;BME280;37474;59.468;18.040;2022-10-22T10:47:15;100990.06;;;8.60;100.00
50380;BME280;37474;59.468;18.040;2022-10-22T10:49:49;100983.22;;;8.59;100.00
50380;BME280;37474;59.468;18.040;2022-10-22T10:52:30;100986.84;;;8.55;100.00
50380;BME280;37474;59.468;18.040;2022-10-22T10:55:10;100985.94;;;8.56;100.00
50380;BME280;37474;59.468;18.040;2022-10-22T10:57:57;100983.59;;;8.72;100.00
50380;BME280;37474;59.468;18.040;2022-10-22T11:00:34;100978.34;;;8.73;100.00
50380;BME280;37474;59.468;18.040;2022-10-22T11:03:32;100982.63;;;8.75;100.00
50380;BME280;37474;59.468;18.040;2022-10-22T11:06:02;100973.78;;;8.80;100.00
50380;BME280;37474;59.468;18.040;2022-10-22T11:08:37;100948.44;;;8.68;100.00
50380;BME280;37474;59.468;18.040;2022-10-22T11:11:11;100962.47;;;8.83;100.00
50380;BME280;37474;59.468;18.040;2022-10-22T11:13:48;100937.00;;;8.73;100.00
50380;BME280;37474;59.468;18.040;2022-10-22T11:16:23;100963.34;;;9.04;100.00
50380;BME280;37474;59.468;18.040;2022-10-22T11:19:02;100950.00;;;8.92;99.89
50380;BME280;37474;59.468;18.040;2022-10-22T11:21:35;100966.91;;;9.01;100.00
50380;BME280;37474;59.468;18.040;2022-10-22T11:24:15;100944.91;;;8.91;99.46
50380;BME280;37474;59.468;18.040;2022-10-22T11:26:49;100961.47;;;9.07;97.55
50380;BME280;37474;59.468;18.040;2022-10-22T11:29:25;100959.06;;;9.03;97.98
50380;BME280;37474;59.468;18.040;2022-10-22T11:32:01;100931.28;;;8.65;99.43
50380;BME280;37474;59.468;18.040;2022-10-22T11:34:34;100957.44;;;8.80;100.00
50380;BME280;37474;59.468;18.040;2022-10-22T11:37:06;100954.84;;;8.80;100.00
50380;BME280;37474;59.468;18.040;2022-10-22T11:39:42;100948.75;;;8.81;100.00
50380;BME280;37474;59.468;18.040;2022-10-22T11:42:17;100940.09;;;8.82;100.00
50380;BME280;37474;59.468;18.040;2022-10-22T11:44:58;100936.56;;;8.84;100.00
50380;BME280;37474;59.468;18.040;2022-10-22T11:47:31;100940.25;;;8.79;100.00
50380;BME280;37474;59.468;18.040;2022-10-22T11:50:18;100931.56;;;8.80;100.00
50380;BME280;37474;59.468;18.040;2022-10-22T11:52:53;100935.25;;;8.74;100.00
50380;BME280;37474;59.468;18.040;2022-10-22T11:55:41;100921.25;;;8.80;100.00
50380;BME280;37474;59.468;18.040;2022-10-22T11:58:32;100897.00;;;8.82;100.00
50380;BME280;37474;59.468;18.040;2022-10-22T12:01:23;100923.13;;;8.96;100.00
50380;BME280;37474;59.468;18.040;2022-10-22T12:04:19;100917.63;;;9.04;100.00
50380;BME280;37474;59.468;18.040;2022-10-22T12:06:58;100914.53;;;9.16;100.00
50380;BME280;37474;59.468;18.040;2022-10-22T12:09:28;100912.78;;;9.17;100.00
50380;BME280;37474;59.468;18.040;2022-10-22T12:12:12;100914.41;;;9.19;100.00
50380;BME280;37474;59.468;18.040;2022-10-22T12:14:52;100912.72;;;9.18;100.00
50380;BME280;37474;59.468;18.040;2022-10-22T12:17:27;100903.22;;;9.19;100.00
50380;BME280;37474;59.468;18.040;2022-10-22T12:20:01;100904.44;;;9.10;100.00
50380;BME280;37474;59.468;18.040;2022-10-22T12:22:33;100902.38;;;9.18;100.00
50380;BME280;37474;59.468;18.040;2022-10-22T12:25:11;100899.88;;;9.17;100.00
50380;BME280;37474;59.468;18.040;2022-10-22T12:27:49;100895.19;;;9.25;100.00
50380;BME280;37474;59.468;18.040;2022-10-22T12:30:20;100895.38;;;9.20;100.00
50380;BME280;37474;59.468;18.040;2022-10-22T12:32:53;100878.38;;;9.15;100.00
50380;BME280;37474;59.468;18.040;2022-10-22T12:35:24;100899.06;;;9.15;100.00
50380;BME280;37474;59.468;18.040;2022-10-22T12:37:57;100896.09;;;9.04;100.00
50380;BME280;37474;59.468;18.040;2022-10-22T12:40:32;100898.84;;;9.01;100.00
50380;BME280;37474;59.468;18.040;2022-10-22T12:43:09;100871.09;;;8.84;100.00
50380;BME280;37474;59.468;18.040;2022-10-22T12:45:38;100895.00;;;8.89;100.00
50380;BME280;37474;59.468;18.040;2022-10-22T12:48:15;100900.75;;;8.95;100.00
50380;BME280;37474;59.468;18.040;2022-10-22T12:50:48;100887.66;;;9.00;100.00
50380;BME280;37474;59.468;18.040;2022-10-22T12:53:21;100860.03;;;8.80;100.00
50380;BME280;37474;59.468;18.040;2022-10-22T12:55:51;100829.72;;;8.84;100.00
50380;BME280;37474;59.468;18.040;2022-10-22T12:58:26;100893.41;;;9.07;100.00
50380;BME280;37474;59.468;18.040;2022-10-22T13:00:56;100889.19;;;9.04;100.00
50380;BME280;37474;59.468;18.040;2022-10-22T13:03:30;100883.34;;;8.99;100.00
50380;BME280;37474;59.468;18.040;2022-10-22T13:06:22;100878.84;;;9.04;100.00
50380;BME280;37474;59.468;18.040;2022-10-22T13:09:13;100878.72;;;9.07;100.00
50380;BME280;37474;59.468;18.040;2022-10-22T13:11:49;100888.69;;;8.96;100.00